Terminal Aerodrome Forecast
Issued by NWS

Home | Current Version | Previous Version | Graphics & Text | Print | Product List | Glossary On
Versions: 1 2 3 4 5 6 7 8 9 10 11 12 13 14 15 16 17 18 19 20 21 22 23 24 25 26 27
000
FTUS41 KCLE 142300 RRA
TAFFDY
TAF
KFDY 142346Z 1500/1524 21006KT 5SM BR SCT030
      TEMPO 1500/1503 6SM BR OVC030
     FM150300 20003KT 5SM BR OVC015
      TEMPO 1509/1513 1SM BR OVC006
     FM151400 18006KT 4SM BR OVC012
     FM151800 17008KT P6SM OVC025=

USA.gov is the U.S. government's official web portal to all federal, state and local government web resources and services.